sensor_id;sensor_type;location;lat;lon;timestamp;P1;durP1;ratioP1;P2;durP2;ratioP2
21260;SDS011;10788;47.930;9.766;2022-07-23T00:00:04;0.10;;;0.10;;
21260;SDS011;10788;47.930;9.766;2022-07-23T00:02:31;0.10;;;0.10;;
21260;SDS011;10788;47.930;9.766;2022-07-23T00:04:56;0.10;;;0.10;;
21260;SDS011;10788;47.930;9.766;2022-07-23T00:07:22;0.10;;;0.10;;
21260;SDS011;10788;47.930;9.766;2022-07-23T00:09:47;0.10;;;0.10;;
21260;SDS011;10788;47.930;9.766;2022-07-23T00:12:13;0.10;;;0.10;;
21260;SDS011;10788;47.930;9.766;2022-07-23T00:14:39;0.10;;;0.10;;
21260;SDS011;10788;47.930;9.766;2022-07-23T00:17:04;0.10;;;0.10;;
21260;SDS011;10788;47.930;9.766;2022-07-23T00:19:30;0.10;;;0.10;;
21260;SDS011;10788;47.930;9.766;2022-07-23T00:21:56;0.10;;;0.10;;
21260;SDS011;10788;47.930;9.766;2022-07-23T00:24:22;0.10;;;0.10;;
21260;SDS011;10788;47.930;9.766;2022-07-23T00:26:47;0.10;;;0.10;;
21260;SDS011;10788;47.930;9.766;2022-07-23T00:29:13;0.10;;;0.10;;
21260;SDS011;10788;47.930;9.766;2022-07-23T00:31:39;0.00;;;0.00;;
21260;SDS011;10788;47.930;9.766;2022-07-23T00:34:04;0.10;;;0.10;;
21260;SDS011;10788;47.930;9.766;2022-07-23T00:36:30;0.10;;;0.10;;
21260;SDS011;10788;47.930;9.766;2022-07-23T00:38:58;0.10;;;0.10;;
21260;SDS011;10788;47.930;9.766;2022-07-23T00:41:24;0.10;;;0.10;;
21260;SDS011;10788;47.930;9.766;2022-07-23T00:43:50;0.10;;;0.10;;
21260;SDS011;10788;47.930;9.766;2022-07-23T00:46:19;0.10;;;0.10;;
21260;SDS011;10788;47.930;9.766;2022-07-23T00:48:45;0.10;;;0.10;;
21260;SDS011;10788;47.930;9.766;2022-07-23T00:51:11;0.10;;;0.10;;
21260;SDS011;10788;47.930;9.766;2022-07-23T00:53:37;0.10;;;0.10;;
21260;SDS011;10788;47.930;9.766;2022-07-23T00:56:02;0.00;;;0.00;;
21260;SDS011;10788;47.930;9.766;2022-07-23T00:58:28;0.10;;;0.10;;
21260;SDS011;10788;47.930;9.766;2022-07-23T01:00:54;0.10;;;0.10;;
21260;SDS011;10788;47.930;9.766;2022-07-23T01:03:19;0.10;;;0.10;;
21260;SDS011;10788;47.930;9.766;2022-07-23T01:05:45;0.10;;;0.10;;
21260;SDS011;10788;47.930;9.766;2022-07-23T01:08:11;0.10;;;0.10;;
21260;SDS011;10788;47.930;9.766;2022-07-23T01:10:37;0.10;;;0.10;;
21260;SDS011;10788;47.930;9.766;2022-07-23T01:13:04;0.00;;;0.00;;
21260;SDS011;10788;47.930;9.766;2022-07-23T01:15:32;0.00;;;0.00;;
21260;SDS011;10788;47.930;9.766;2022-07-23T01:17:58;0.00;;;0.00;;
21260;SDS011;10788;47.930;9.766;2022-07-23T01:20:25;0.00;;;0.00;;
21260;SDS011;10788;47.930;9.766;2022-07-23T01:22:51;0.00;;;0.00;;
21260;SDS011;10788;47.930;9.766;2022-07-23T01:25:18;0.00;;;0.00;;
21260;SDS011;10788;47.930;9.766;2022-07-23T01:27:44;0.07;;;0.07;;
21260;SDS011;10788;47.930;9.766;2022-07-23T01:30:10;0.00;;;0.00;;
21260;SDS011;10788;47.930;9.766;2022-07-23T01:32:36;0.00;;;0.00;;
21260;SDS011;10788;47.930;9.766;2022-07-23T01:35:02;0.00;;;0.00;;
21260;SDS011;10788;47.930;9.766;2022-07-23T01:37:28;0.00;;;0.00;;
21260;SDS011;10788;47.930;9.766;2022-07-23T01:39:54;0.00;;;0.00;;
21260;SDS011;10788;47.930;9.766;2022-07-23T01:42:20;0.00;;;0.00;;
21260;SDS011;10788;47.930;9.766;2022-07-23T01:44:45;0.00;;;0.00;;
21260;SDS011;10788;47.930;9.766;2022-07-23T01:47:11;0.00;;;0.00;;
21260;SDS011;10788;47.930;9.766;2022-07-23T01:49:37;0.00;;;0.00;;
21260;SDS011;10788;47.930;9.766;2022-07-23T01:52:03;0.00;;;0.00;;
21260;SDS011;10788;47.930;9.766;2022-07-23T01:54:32;0.00;;;0.00;;
21260;SDS011;10788;47.930;9.766;2022-07-23T01:56:59;0.00;;;0.00;;
21260;SDS011;10788;47.930;9.766;2022-07-23T01:59:25;0.00;;;0.00;;
21260;SDS011;10788;47.930;9.766;2022-07-23T02:01:52;0.00;;;0.00;;
21260;SDS011;10788;47.930;9.766;2022-07-23T02:04:18;0.07;;;0.07;;
21260;SDS011;10788;47.930;9.766;2022-07-23T02:06:45;0.00;;;0.00;;
21260;SDS011;10788;47.930;9.766;2022-07-23T02:09:11;0.10;;;0.10;;
21260;SDS011;10788;47.930;9.766;2022-07-23T02:11:37;0.00;;;0.00;;
21260;SDS011;10788;47.930;9.766;2022-07-23T02:14:03;0.00;;;0.00;;
21260;SDS011;10788;47.930;9.766;2022-07-23T02:16:29;0.00;;;0.00;;
21260;SDS011;10788;47.930;9.766;2022-07-23T02:18:54;0.00;;;0.00;;
21260;SDS011;10788;47.930;9.766;2022-07-23T02:21:20;0.00;;;0.00;;
21260;SDS011;10788;47.930;9.766;2022-07-23T02:23:46;0.00;;;0.00;;
21260;SDS011;10788;47.930;9.766;2022-07-23T02:26:11;0.00;;;0.00;;
21260;SDS011;10788;47.930;9.766;2022-07-23T02:28:37;0.00;;;0.00;;
21260;SDS011;10788;47.930;9.766;2022-07-23T02:31:03;0.00;;;0.00;;
21260;SDS011;10788;47.930;9.766;2022-07-23T02:33:29;0.00;;;0.00;;
21260;SDS011;10788;47.930;9.766;2022-07-23T02:35:54;0.00;;;0.00;;
21260;SDS011;10788;47.930;9.766;2022-07-23T02:38:20;0.00;;;0.00;;
21260;SDS011;10788;47.930;9.766;2022-07-23T02:40:46;0.00;;;0.00;;
21260;SDS011;10788;47.930;9.766;2022-07-23T02:43:11;0.00;;;0.00;;
21260;SDS011;10788;47.930;9.766;2022-07-23T02:45:37;0.00;;;0.00;;
21260;SDS011;10788;47.930;9.766;2022-07-23T02:48:03;0.00;;;0.00;;
21260;SDS011;10788;47.930;9.766;2022-07-23T02:50:28;0.00;;;0.00;;
21260;SDS011;10788;47.930;9.766;2022-07-23T02:52:54;0.00;;;0.00;;
21260;SDS011;10788;47.930;9.766;2022-07-23T02:55:20;0.07;;;0.07;;
21260;SDS011;10788;47.930;9.766;2022-07-23T02:57:45;0.00;;;0.00;;
21260;SDS011;10788;47.930;9.766;2022-07-23T03:00:11;0.00;;;0.00;;
21260;SDS011;10788;47.930;9.766;2022-07-23T03:02:37;0.00;;;0.00;;
21260;SDS011;10788;47.930;9.766;2022-07-23T03:05:03;0.00;;;0.00;;
21260;SDS011;10788;47.930;9.766;2022-07-23T03:07:29;0.00;;;0.00;;
21260;SDS011;10788;47.930;9.766;2022-07-23T03:09:55;0.10;;;0.10;;
21260;SDS011;10788;47.930;9.766;2022-07-23T03:12:20;0.10;;;0.10;;
21260;SDS011;10788;47.930;9.766;2022-07-23T03:14:46;0.00;;;0.00;;
21260;SDS011;10788;47.930;9.766;2022-07-23T03:17:12;0.00;;;0.00;;
21260;SDS011;10788;47.930;9.766;2022-07-23T03:19:37;0.10;;;0.10;;
21260;SDS011;10788;47.930;9.766;2022-07-23T03:22:03;0.00;;;0.00;;
21260;SDS011;10788;47.930;9.766;2022-07-23T03:24:29;0.00;;;0.00;;
21260;SDS011;10788;47.930;9.766;2022-07-23T03:27:13;0.00;;;0.00;;
21260;SDS011;10788;47.930;9.766;2022-07-23T03:29:39;0.00;;;0.00;;
21260;SDS011;10788;47.930;9.766;2022-07-23T03:32:05;0.00;;;0.00;;
21260;SDS011;10788;47.930;9.766;2022-07-23T03:34:31;0.00;;;0.00;;
21260;SDS011;10788;47.930;9.766;2022-07-23T03:36:57;0.00;;;0.00;;
21260;SDS011;10788;47.930;9.766;2022-07-23T03:39:22;0.00;;;0.00;;
21260;SDS011;10788;47.930;9.766;2022-07-23T03:41:48;0.00;;;0.00;;
21260;SDS011;10788;47.930;9.766;2022-07-23T03:44:13;0.00;;;0.00;;
21260;SDS011;10788;47.930;9.766;2022-07-23T03:46:39;0.00;;;0.00;;
21260;SDS011;10788;47.930;9.766;2022-07-23T03:49:05;0.00;;;0.00;;
21260;SDS011;10788;47.930;9.766;2022-07-23T03:51:30;0.10;;;0.10;;
21260;SDS011;10788;47.930;9.766;2022-07-23T03:53:56;0.00;;;0.00;;
21260;SDS011;10788;47.930;9.766;2022-07-23T03:56:22;0.00;;;0.00;;
21260;SDS011;10788;47.930;9.766;2022-07-23T03:58:47;0.00;;;0.00;;
21260;SDS011;10788;47.930;9.766;2022-07-23T04:01:13;0.00;;;0.00;;
21260;SDS011;10788;47.930;9.766;2022-07-23T04:03:39;0.07;;;0.07;;
21260;SDS011;10788;47.930;9.766;2022-07-23T04:06:05;0.00;;;0.00;;
21260;SDS011;10788;47.930;9.766;2022-07-23T04:08:31;0.00;;;0.00;;
21260;SDS011;10788;47.930;9.766;2022-07-23T04:10:57;0.00;;;0.00;;
21260;SDS011;10788;47.930;9.766;2022-07-23T04:13:22;0.00;;;0.00;;
21260;SDS011;10788;47.930;9.766;2022-07-23T04:15:48;0.00;;;0.00;;
21260;SDS011;10788;47.930;9.766;2022-07-23T04:18:15;0.00;;;0.00;;
21260;SDS011;10788;47.930;9.766;2022-07-23T04:20:42;0.10;;;0.10;;
21260;SDS011;10788;47.930;9.766;2022-07-23T04:23:08;0.00;;;0.00;;
21260;SDS011;10788;47.930;9.766;2022-07-23T04:25:34;0.10;;;0.10;;
21260;SDS011;10788;47.930;9.766;2022-07-23T04:28:00;0.00;;;0.00;;
21260;SDS011;10788;47.930;9.766;2022-07-23T04:30:26;0.00;;;0.00;;
21260;SDS011;10788;47.930;9.766;2022-07-23T04:32:52;0.00;;;0.00;;
21260;SDS011;10788;47.930;9.766;2022-07-23T04:35:17;0.00;;;0.00;;
21260;SDS011;10788;47.930;9.766;2022-07-23T04:37:43;0.10;;;0.10;;
21260;SDS011;10788;47.930;9.766;2022-07-23T04:40:09;0.10;;;0.10;;
21260;SDS011;10788;47.930;9.766;2022-07-23T04:42:35;0.00;;;0.00;;
21260;SDS011;10788;47.930;9.766;2022-07-23T04:45:01;0.00;;;0.00;;
21260;SDS011;10788;47.930;9.766;2022-07-23T04:47:28;0.00;;;0.00;;
21260;SDS011;10788;47.930;9.766;2022-07-23T04:49:55;0.00;;;0.00;;
21260;SDS011;10788;47.930;9.766;2022-07-23T04:52:21;0.00;;;0.00;;
21260;SDS011;10788;47.930;9.766;2022-07-23T04:54:47;0.00;;;0.00;;
21260;SDS011;10788;47.930;9.766;2022-07-23T04:57:13;0.00;;;0.00;;
21260;SDS011;10788;47.930;9.766;2022-07-23T04:59:38;0.00;;;0.00;;
21260;SDS011;10788;47.930;9.766;2022-07-23T05:02:04;0.00;;;0.00;;
21260;SDS011;10788;47.930;9.766;2022-07-23T05:04:30;0.00;;;0.00;;
21260;SDS011;10788;47.930;9.766;2022-07-23T05:06:56;0.00;;;0.00;;
21260;SDS011;10788;47.930;9.766;2022-07-23T05:09:22;0.10;;;0.10;;
21260;SDS011;10788;47.930;9.766;2022-07-23T05:11:48;0.10;;;0.10;;
21260;SDS011;10788;47.930;9.766;2022-07-23T05:14:14;0.00;;;0.00;;
21260;SDS011;10788;47.930;9.766;2022-07-23T05:16:40;0.00;;;0.00;;
21260;SDS011;10788;47.930;9.766;2022-07-23T05:19:05;0.00;;;0.00;;
21260;SDS011;10788;47.930;9.766;2022-07-23T05:21:31;0.00;;;0.00;;
21260;SDS011;10788;47.930;9.766;2022-07-23T05:23:57;0.00;;;0.00;;
21260;SDS011;10788;47.930;9.766;2022-07-23T05:26:23;0.00;;;0.00;;
21260;SDS011;10788;47.930;9.766;2022-07-23T05:28:49;0.00;;;0.00;;
21260;SDS011;10788;47.930;9.766;2022-07-23T05:31:15;0.00;;;0.00;;
21260;SDS011;10788;47.930;9.766;2022-07-23T05:33:41;0.00;;;0.00;;
21260;SDS011;10788;47.930;9.766;2022-07-23T05:36:06;0.07;;;0.07;;
21260;SDS011;10788;47.930;9.766;2022-07-23T05:38:32;0.00;;;0.00;;
21260;SDS011;10788;47.930;9.766;2022-07-23T05:40:58;0.00;;;0.00;;
21260;SDS011;10788;47.930;9.766;2022-07-23T05:43:24;0.00;;;0.00;;
21260;SDS011;10788;47.930;9.766;2022-07-23T05:45:50;0.00;;;0.00;;
21260;SDS011;10788;47.930;9.766;2022-07-23T05:48:15;0.10;;;0.10;;
21260;SDS011;10788;47.930;9.766;2022-07-23T05:50:41;0.00;;;0.00;;
21260;SDS011;10788;47.930;9.766;2022-07-23T05:53:07;0.07;;;0.07;;
21260;SDS011;10788;47.930;9.766;2022-07-23T05:55:32;0.00;;;0.00;;
21260;SDS011;10788;47.930;9.766;2022-07-23T05:57:58;0.10;;;0.10;;
21260;SDS011;10788;47.930;9.766;2022-07-23T06:00:24;0.00;;;0.00;;
21260;SDS011;10788;47.930;9.766;2022-07-23T06:02:50;0.00;;;0.00;;
21260;SDS011;10788;47.930;9.766;2022-07-23T06:05:17;0.10;;;0.10;;
21260;SDS011;10788;47.930;9.766;2022-07-23T06:07:42;0.00;;;0.00;;
21260;SDS011;10788;47.930;9.766;2022-07-23T06:10:08;0.10;;;0.10;;
21260;SDS011;10788;47.930;9.766;2022-07-23T06:12:35;0.10;;;0.10;;
21260;SDS011;10788;47.930;9.766;2022-07-23T06:15:01;0.00;;;0.00;;
21260;SDS011;10788;47.930;9.766;2022-07-23T06:17:27;0.00;;;0.00;;
21260;SDS011;10788;47.930;9.766;2022-07-23T06:19:53;0.00;;;0.00;;
21260;SDS011;10788;47.930;9.766;2022-07-23T06:22:18;0.00;;;0.00;;
21260;SDS011;10788;47.930;9.766;2022-07-23T06:24:44;0.00;;;0.00;;
21260;SDS011;10788;47.930;9.766;2022-07-23T06:27:10;0.00;;;0.00;;
21260;SDS011;10788;47.930;9.766;2022-07-23T06:29:35;0.10;;;0.10;;
21260;SDS011;10788;47.930;9.766;2022-07-23T06:32:01;0.00;;;0.00;;
21260;SDS011;10788;47.930;9.766;2022-07-23T06:34:27;0.00;;;0.00;;
21260;SDS011;10788;47.930;9.766;2022-07-23T06:36:52;0.00;;;0.00;;
21260;SDS011;10788;47.930;9.766;2022-07-23T06:39:18;0.00;;;0.00;;
21260;SDS011;10788;47.930;9.766;2022-07-23T06:41:44;0.00;;;0.00;;
21260;SDS011;10788;47.930;9.766;2022-07-23T06:44:09;0.00;;;0.00;;
21260;SDS011;10788;47.930;9.766;2022-07-23T06:46:35;0.00;;;0.00;;
21260;SDS011;10788;47.930;9.766;2022-07-23T06:49:01;0.00;;;0.00;;
21260;SDS011;10788;47.930;9.766;2022-07-23T06:51:26;0.00;;;0.00;;
21260;SDS011;10788;47.930;9.766;2022-07-23T06:53:52;0.00;;;0.00;;
21260;SDS011;10788;47.930;9.766;2022-07-23T06:56:18;0.00;;;0.00;;
21260;SDS011;10788;47.930;9.766;2022-07-23T06:58:43;0.00;;;0.00;;
21260;SDS011;10788;47.930;9.766;2022-07-23T07:01:09;0.10;;;0.10;;
21260;SDS011;10788;47.930;9.766;2022-07-23T07:03:35;0.00;;;0.00;;
21260;SDS011;10788;47.930;9.766;2022-07-23T07:06:00;0.00;;;0.00;;
21260;SDS011;10788;47.930;9.766;2022-07-23T07:08:27;0.00;;;0.00;;
21260;SDS011;10788;47.930;9.766;2022-07-23T07:10:53;0.00;;;0.00;;
21260;SDS011;10788;47.930;9.766;2022-07-23T07:13:18;0.00;;;0.00;;
21260;SDS011;10788;47.930;9.766;2022-07-23T07:15:44;0.00;;;0.00;;
21260;SDS011;10788;47.930;9.766;2022-07-23T07:18:10;0.00;;;0.00;;
21260;SDS011;10788;47.930;9.766;2022-07-23T07:20:35;0.00;;;0.00;;
21260;SDS011;10788;47.930;9.766;2022-07-23T07:23:01;0.00;;;0.00;;
21260;SDS011;10788;47.930;9.766;2022-07-23T07:25:26;0.07;;;0.07;;
21260;SDS011;10788;47.930;9.766;2022-07-23T07:27:52;0.00;;;0.00;;
21260;SDS011;10788;47.930;9.766;2022-07-23T07:30:18;0.00;;;0.00;;
21260;SDS011;10788;47.930;9.766;2022-07-23T07:32:43;0.10;;;0.10;;
21260;SDS011;10788;47.930;9.766;2022-07-23T07:35:09;0.10;;;0.10;;
21260;SDS011;10788;47.930;9.766;2022-07-23T07:37:35;0.10;;;0.10;;
21260;SDS011;10788;47.930;9.766;2022-07-23T07:40:01;0.00;;;0.00;;
21260;SDS011;10788;47.930;9.766;2022-07-23T07:42:27;0.10;;;0.10;;
21260;SDS011;10788;47.930;9.766;2022-07-23T07:44:53;0.00;;;0.00;;
21260;SDS011;10788;47.930;9.766;2022-07-23T07:47:18;0.03;;;0.03;;
21260;SDS011;10788;47.930;9.766;2022-07-23T07:49:44;0.10;;;0.10;;
21260;SDS011;10788;47.930;9.766;2022-07-23T07:52:10;0.00;;;0.00;;
21260;SDS011;10788;47.930;9.766;2022-07-23T07:54:36;0.10;;;0.10;;
21260;SDS011;10788;47.930;9.766;2022-07-23T07:57:02;0.00;;;0.00;;
21260;SDS011;10788;47.930;9.766;2022-07-23T07:59:28;0.10;;;0.10;;
21260;SDS011;10788;47.930;9.766;2022-07-23T08:01:54;0.00;;;0.00;;
21260;SDS011;10788;47.930;9.766;2022-07-23T08:04:20;0.00;;;0.00;;
21260;SDS011;10788;47.930;9.766;2022-07-23T08:06:45;0.10;;;0.10;;
21260;SDS011;10788;47.930;9.766;2022-07-23T08:09:11;0.10;;;0.10;;
21260;SDS011;10788;47.930;9.766;2022-07-23T08:11:37;0.10;;;0.10;;
21260;SDS011;10788;47.930;9.766;2022-07-23T08:14:02;0.10;;;0.10;;
21260;SDS011;10788;47.930;9.766;2022-07-23T08:16:28;0.10;;;0.10;;
21260;SDS011;10788;47.930;9.766;2022-07-23T08:18:54;0.03;;;0.03;;
21260;SDS011;10788;47.930;9.766;2022-07-23T08:21:20;0.10;;;0.10;;
21260;SDS011;10788;47.930;9.766;2022-07-23T08:23:45;0.10;;;0.10;;
21260;SDS011;10788;47.930;9.766;2022-07-23T08:26:11;0.07;;;0.07;;
21260;SDS011;10788;47.930;9.766;2022-07-23T08:28:37;0.00;;;0.00;;
21260;SDS011;10788;47.930;9.766;2022-07-23T08:31:03;0.10;;;0.10;;
21260;SDS011;10788;47.930;9.766;2022-07-23T08:33:30;0.10;;;0.10;;
21260;SDS011;10788;47.930;9.766;2022-07-23T08:35:57;0.10;;;0.10;;
21260;SDS011;10788;47.930;9.766;2022-07-23T08:38:23;0.00;;;0.00;;
21260;SDS011;10788;47.930;9.766;2022-07-23T08:40:54;0.00;;;0.00;;
21260;SDS011;10788;47.930;9.766;2022-07-23T08:43:23;0.10;;;0.10;;
21260;SDS011;10788;47.930;9.766;2022-07-23T08:45:52;0.10;;;0.10;;
21260;SDS011;10788;47.930;9.766;2022-07-23T08:48:22;0.10;;;0.10;;
21260;SDS011;10788;47.930;9.766;2022-07-23T08:50:53;0.00;;;0.00;;
21260;SDS011;10788;47.930;9.766;2022-07-23T08:53:21;0.10;;;0.10;;
21260;SDS011;10788;47.930;9.766;2022-07-23T08:55:48;0.00;;;0.00;;
21260;SDS011;10788;47.930;9.766;2022-07-23T08:58:16;0.10;;;0.10;;
21260;SDS011;10788;47.930;9.766;2022-07-23T09:00:42;0.00;;;0.00;;
21260;SDS011;10788;47.930;9.766;2022-07-23T09:03:20;0.10;;;0.10;;
21260;SDS011;10788;47.930;9.766;2022-07-23T09:05:47;0.10;;;0.10;;
21260;SDS011;10788;47.930;9.766;2022-07-23T09:10:46;0.07;;;0.07;;
21260;SDS011;10788;47.930;9.766;2022-07-23T09:15:53;0.00;;;0.00;;
21260;SDS011;10788;47.930;9.766;2022-07-23T09:18:55;0.10;;;0.10;;
21260;SDS011;10788;47.930;9.766;2022-07-23T09:21:16;0.00;;;0.00;;
21260;SDS011;10788;47.930;9.766;2022-07-23T09:24:05;0.00;;;0.00;;
21260;SDS011;10788;47.930;9.766;2022-07-23T09:31:41;0.00;;;0.00;;
21260;SDS011;10788;47.930;9.766;2022-07-23T09:36:52;0.00;;;0.00;;
21260;SDS011;10788;47.930;9.766;2022-07-23T09:39:31;0.10;;;0.10;;
21260;SDS011;10788;47.930;9.766;2022-07-23T09:41:59;0.10;;;0.10;;
21260;SDS011;10788;47.930;9.766;2022-07-23T09:44:48;0.10;;;0.10;;
21260;SDS011;10788;47.930;9.766;2022-07-23T09:47:18;0.00;;;0.00;;
21260;SDS011;10788;47.930;9.766;2022-07-23T09:52:32;0.10;;;0.10;;
21260;SDS011;10788;47.930;9.766;2022-07-23T09:55:00;0.10;;;0.10;;
21260;SDS011;10788;47.930;9.766;2022-07-23T09:57:27;0.10;;;0.10;;
21260;SDS011;10788;47.930;9.766;2022-07-23T09:59:53;0.10;;;0.10;;
21260;SDS011;10788;47.930;9.766;2022-07-23T10:02:22;0.10;;;0.10;;
21260;SDS011;10788;47.930;9.766;2022-07-23T10:04:49;0.00;;;0.00;;
21260;SDS011;10788;47.930;9.766;2022-07-23T10:07:18;0.10;;;0.10;;
21260;SDS011;10788;47.930;9.766;2022-07-23T10:09:46;0.10;;;0.10;;
21260;SDS011;10788;47.930;9.766;2022-07-23T10:12:14;0.10;;;0.10;;
21260;SDS011;10788;47.930;9.766;2022-07-23T10:14:40;0.10;;;0.10;;
21260;SDS011;10788;47.930;9.766;2022-07-23T10:17:07;0.10;;;0.10;;
21260;SDS011;10788;47.930;9.766;2022-07-23T10:19:34;0.10;;;0.10;;
21260;SDS011;10788;47.930;9.766;2022-07-23T10:22:04;0.10;;;0.10;;
21260;SDS011;10788;47.930;9.766;2022-07-23T10:36:18;0.10;;;0.10;;
21260;SDS011;10788;47.930;9.766;2022-07-23T10:44:09;0.10;;;0.10;;
21260;SDS011;10788;47.930;9.766;2022-07-23T10:49:40;0.00;;;0.00;;
21260;SDS011;10788;47.930;9.766;2022-07-23T10:52:19;0.10;;;0.10;;
21260;SDS011;10788;47.930;9.766;2022-07-23T10:57:50;0.10;;;0.10;;
21260;SDS011;10788;47.930;9.766;2022-07-23T11:00:20;0.07;;;0.07;;
21260;SDS011;10788;47.930;9.766;2022-07-23T11:02:51;0.10;;;0.10;;
21260;SDS011;10788;47.930;9.766;2022-07-23T11:05:19;0.10;;;0.10;;
21260;SDS011;10788;47.930;9.766;2022-07-23T11:13:36;0.10;;;0.10;;
21260;SDS011;10788;47.930;9.766;2022-07-23T11:26:44;0.10;;;0.10;;
21260;SDS011;10788;47.930;9.766;2022-07-23T11:32:00;0.10;;;0.10;;
21260;SDS011;10788;47.930;9.766;2022-07-23T11:34:34;0.10;;;0.10;;
21260;SDS011;10788;47.930;9.766;2022-07-23T11:37:04;0.10;;;0.10;;
21260;SDS011;10788;47.930;9.766;2022-07-23T11:39:35;0.10;;;0.10;;
21260;SDS011;10788;47.930;9.766;2022-07-23T11:42:02;0.10;;;0.10;;
21260;SDS011;10788;47.930;9.766;2022-07-23T11:44:31;0.10;;;0.10;;
21260;SDS011;10788;47.930;9.766;2022-07-23T11:47:03;0.10;;;0.10;;
21260;SDS011;10788;47.930;9.766;2022-07-23T11:49:30;0.10;;;0.10;;
21260;SDS011;10788;47.930;9.766;2022-07-23T11:52:12;0.00;;;0.00;;
21260;SDS011;10788;47.930;9.766;2022-07-23T11:57:15;0.10;;;0.10;;
21260;SDS011;10788;47.930;9.766;2022-07-23T11:59:41;0.03;;;0.03;;
21260;SDS011;10788;47.930;9.766;2022-07-23T12:02:08;0.10;;;0.10;;
21260;SDS011;10788;47.930;9.766;2022-07-23T12:10:16;0.10;;;0.10;;
21260;SDS011;10788;47.930;9.766;2022-07-23T12:12:47;0.10;;;0.10;;
21260;SDS011;10788;47.930;9.766;2022-07-23T12:15:15;0.10;;;0.10;;
21260;SDS011;10788;47.930;9.766;2022-07-23T12:17:43;0.10;;;0.10;;
21260;SDS011;10788;47.930;9.766;2022-07-23T12:20:19;0.10;;;0.10;;
21260;SDS011;10788;47.930;9.766;2022-07-23T12:22:51;0.10;;;0.10;;
21260;SDS011;10788;47.930;9.766;2022-07-23T12:25:22;0.10;;;0.10;;
21260;SDS011;10788;47.930;9.766;2022-07-23T12:30:38;0.10;;;0.10;;
21260;SDS011;10788;47.930;9.766;2022-07-23T12:33:08;0.10;;;0.10;;
21260;SDS011;10788;47.930;9.766;2022-07-23T12:35:45;0.10;;;0.10;;
21260;SDS011;10788;47.930;9.766;2022-07-23T12:38:14;0.10;;;0.10;;
21260;SDS011;10788;47.930;9.766;2022-07-23T12:43:11;0.10;;;0.10;;
21260;SDS011;10788;47.930;9.766;2022-07-23T12:50:48;0.10;;;0.10;;
21260;SDS011;10788;47.930;9.766;2022-07-23T13:06:29;0.10;;;0.10;;
21260;SDS011;10788;47.930;9.766;2022-07-23T13:09:06;0.10;;;0.10;;
21260;SDS011;10788;47.930;9.766;2022-07-23T13:11:33;0.10;;;0.10;;
21260;SDS011;10788;47.930;9.766;2022-07-23T13:14:00;0.10;;;0.10;;
21260;SDS011;10788;47.930;9.766;2022-07-23T13:16:27;0.10;;;0.10;;
21260;SDS011;10788;47.930;9.766;2022-07-23T13:18:54;0.10;;;0.10;;
21260;SDS011;10788;47.930;9.766;2022-07-23T13:21:21;0.10;;;0.10;;
21260;SDS011;10788;47.930;9.766;2022-07-23T13:23:47;0.10;;;0.10;;
21260;SDS011;10788;47.930;9.766;2022-07-23T13:26:13;0.10;;;0.10;;
21260;SDS011;10788;47.930;9.766;2022-07-23T13:28:42;0.10;;;0.10;;
21260;SDS011;10788;47.930;9.766;2022-07-23T13:31:08;0.10;;;0.10;;
21260;SDS011;10788;47.930;9.766;2022-07-23T13:33:34;0.10;;;0.10;;
21260;SDS011;10788;47.930;9.766;2022-07-23T13:35:59;0.10;;;0.10;;
21260;SDS011;10788;47.930;9.766;2022-07-23T13:38:26;0.10;;;0.10;;
21260;SDS011;10788;47.930;9.766;2022-07-23T13:40:52;0.10;;;0.10;;
21260;SDS011;10788;47.930;9.766;2022-07-23T13:43:19;0.10;;;0.10;;
21260;SDS011;10788;47.930;9.766;2022-07-23T13:45:47;0.10;;;0.10;;
21260;SDS011;10788;47.930;9.766;2022-07-23T13:48:13;0.10;;;0.10;;
21260;SDS011;10788;47.930;9.766;2022-07-23T13:50:39;0.10;;;0.10;;
21260;SDS011;10788;47.930;9.766;2022-07-23T13:53:17;0.10;;;0.10;;
21260;SDS011;10788;47.930;9.766;2022-07-23T13:55:44;0.10;;;0.10;;
21260;SDS011;10788;47.930;9.766;2022-07-23T13:58:11;0.13;;;0.13;;
21260;SDS011;10788;47.930;9.766;2022-07-23T14:00:39;0.10;;;0.10;;
21260;SDS011;10788;47.930;9.766;2022-07-23T14:03:06;0.10;;;0.10;;
21260;SDS011;10788;47.930;9.766;2022-07-23T14:05:32;0.10;;;0.10;;
21260;SDS011;10788;47.930;9.766;2022-07-23T14:07:58;0.10;;;0.10;;
21260;SDS011;10788;47.930;9.766;2022-07-23T14:10:24;0.10;;;0.10;;
21260;SDS011;10788;47.930;9.766;2022-07-23T14:12:50;0.10;;;0.10;;
21260;SDS011;10788;47.930;9.766;2022-07-23T14:15:17;0.20;;;0.20;;
21260;SDS011;10788;47.930;9.766;2022-07-23T14:17:44;0.10;;;0.10;;
21260;SDS011;10788;47.930;9.766;2022-07-23T14:20:11;0.10;;;0.10;;
21260;SDS011;10788;47.930;9.766;2022-07-23T14:22:38;0.10;;;0.10;;
21260;SDS011;10788;47.930;9.766;2022-07-23T14:25:04;0.20;;;0.20;;
21260;SDS011;10788;47.930;9.766;2022-07-23T14:27:31;0.10;;;0.10;;
21260;SDS011;10788;47.930;9.766;2022-07-23T14:29:57;0.10;;;0.10;;
21260;SDS011;10788;47.930;9.766;2022-07-23T14:32:23;0.10;;;0.10;;
21260;SDS011;10788;47.930;9.766;2022-07-23T14:34:49;0.20;;;0.20;;
21260;SDS011;10788;47.930;9.766;2022-07-23T14:37:15;0.20;;;0.20;;
21260;SDS011;10788;47.930;9.766;2022-07-23T14:39:42;0.10;;;0.10;;
21260;SDS011;10788;47.930;9.766;2022-07-23T14:42:08;0.20;;;0.20;;
21260;SDS011;10788;47.930;9.766;2022-07-23T14:44:35;0.13;;;0.13;;
21260;SDS011;10788;47.930;9.766;2022-07-23T14:47:01;0.20;;;0.20;;
21260;SDS011;10788;47.930;9.766;2022-07-23T14:49:29;0.10;;;0.10;;
21260;SDS011;10788;47.930;9.766;2022-07-23T14:51:55;0.20;;;0.20;;
21260;SDS011;10788;47.930;9.766;2022-07-23T14:54:21;0.10;;;0.10;;
21260;SDS011;10788;47.930;9.766;2022-07-23T14:56:47;0.17;;;0.17;;
21260;SDS011;10788;47.930;9.766;2022-07-23T14:59:12;0.10;;;0.10;;
21260;SDS011;10788;47.930;9.766;2022-07-23T15:01:38;0.20;;;0.20;;
21260;SDS011;10788;47.930;9.766;2022-07-23T15:04:05;0.10;;;0.10;;
21260;SDS011;10788;47.930;9.766;2022-07-23T15:06:32;0.20;;;0.20;;
21260;SDS011;10788;47.930;9.766;2022-07-23T15:08:58;0.20;;;0.20;;
21260;SDS011;10788;47.930;9.766;2022-07-23T15:11:25;0.20;;;0.20;;
21260;SDS011;10788;47.930;9.766;2022-07-23T15:13:51;0.20;;;0.20;;
21260;SDS011;10788;47.930;9.766;2022-07-23T15:16:17;0.10;;;0.10;;
21260;SDS011;10788;47.930;9.766;2022-07-23T15:18:43;0.20;;;0.20;;
21260;SDS011;10788;47.930;9.766;2022-07-23T15:21:09;0.20;;;0.20;;
21260;SDS011;10788;47.930;9.766;2022-07-23T15:23:34;0.30;;;0.30;;
21260;SDS011;10788;47.930;9.766;2022-07-23T15:26:01;0.23;;;0.23;;
21260;SDS011;10788;47.930;9.766;2022-07-23T15:28:27;0.10;;;0.10;;
21260;SDS011;10788;47.930;9.766;2022-07-23T15:30:53;0.20;;;0.20;;
21260;SDS011;10788;47.930;9.766;2022-07-23T15:33:19;0.10;;;0.10;;
21260;SDS011;10788;47.930;9.766;2022-07-23T15:35:45;0.10;;;0.10;;
21260;SDS011;10788;47.930;9.766;2022-07-23T15:38:10;0.13;;;0.13;;
21260;SDS011;10788;47.930;9.766;2022-07-23T15:40:36;0.20;;;0.20;;
21260;SDS011;10788;47.930;9.766;2022-07-23T15:43:02;0.10;;;0.10;;
21260;SDS011;10788;47.930;9.766;2022-07-23T15:45:29;0.20;;;0.20;;
21260;SDS011;10788;47.930;9.766;2022-07-23T15:47:56;0.10;;;0.10;;
21260;SDS011;10788;47.930;9.766;2022-07-23T15:50:22;0.20;;;0.20;;
21260;SDS011;10788;47.930;9.766;2022-07-23T15:52:48;0.20;;;0.20;;
21260;SDS011;10788;47.930;9.766;2022-07-23T15:55:13;0.10;;;0.10;;
21260;SDS011;10788;47.930;9.766;2022-07-23T15:57:39;0.20;;;0.20;;
21260;SDS011;10788;47.930;9.766;2022-07-23T16:00:05;0.20;;;0.20;;
21260;SDS011;10788;47.930;9.766;2022-07-23T16:02:32;0.20;;;0.20;;
21260;SDS011;10788;47.930;9.766;2022-07-23T16:04:58;0.10;;;0.10;;
21260;SDS011;10788;47.930;9.766;2022-07-23T16:07:23;0.13;;;0.13;;
21260;SDS011;10788;47.930;9.766;2022-07-23T16:09:49;0.10;;;0.10;;
21260;SDS011;10788;47.930;9.766;2022-07-23T16:12:15;0.20;;;0.20;;
21260;SDS011;10788;47.930;9.766;2022-07-23T16:14:40;0.20;;;0.20;;